createdAt,value
2019-03-30T00:03:53.358Z,9.15
2019-03-30T00:08:55.910Z,9.14
2019-03-30T00:14:01.057Z,9.16
2019-03-30T00:19:03.617Z,9.23
2019-03-30T00:24:06.446Z,8.99
2019-03-30T00:29:10.672Z,9.16
2019-03-30T00:34:16.292Z,9.14
2019-03-30T00:39:18.831Z,9.13
2019-03-30T00:44:21.436Z,9.14
2019-03-30T00:49:24.047Z,9.01
2019-03-30T00:54:26.600Z,9.14
2019-03-30T00:59:29.157Z,9.28
2019-03-30T01:04:33.310Z,9.42
2019-03-30T01:09:35.889Z,9.25
2019-03-30T01:14:41.211Z,9.55
2019-03-30T01:19:43.796Z,9.72
2019-03-30T01:24:46.314Z,9.52
2019-03-30T01:29:50.991Z,9.70
2019-03-30T01:34:56.692Z,9.78
2019-03-30T01:39:59.228Z,9.65
2019-03-30T01:45:01.843Z,9.71
2019-03-30T01:50:16.640Z,9.66
2019-03-30T01:55:10.054Z,9.73
2019-03-30T02:00:13.143Z,10.04
2019-03-30T02:05:15.919Z,10.01
2019-03-30T02:10:38.161Z,9.97
2019-03-30T02:15:40.705Z,10.22
2019-03-30T02:20:44.076Z,10.21
2019-03-30T02:25:46.861Z,10.20
2019-03-30T02:30:52.537Z,9.87
2019-03-30T02:35:55.080Z,10.08
2019-03-30T02:40:57.694Z,10.13
2019-03-30T02:46:00.564Z,9.83
2019-03-30T02:51:03.182Z,10.00
2019-03-30T02:56:05.795Z,9.99
2019-03-30T03:01:08.439Z,9.75
2019-03-30T03:06:11.002Z,9.66
2019-03-30T03:11:13.857Z,9.50
2019-03-30T03:16:16.438Z,9.56
2019-03-30T03:21:19.067Z,9.40
2019-03-30T03:26:24.496Z,9.63
2019-03-30T03:31:27.614Z,9.58
2019-03-30T03:36:30.336Z,9.52
2019-03-30T03:41:33.510Z,9.29
2019-03-30T03:46:36.412Z,9.53
2019-03-30T03:51:39.533Z,9.28
2019-03-30T03:56:46.394Z,9.39
2019-03-30T04:01:51.265Z,9.16
2019-03-30T04:06:59.202Z,9.18
2019-03-30T04:12:11.647Z,9.38
2019-03-30T04:17:14.327Z,9.41
2019-03-30T04:22:17.002Z,9.53
2019-03-30T04:27:19.676Z,9.50
2019-03-30T04:32:22.253Z,9.55
2019-03-30T04:37:24.855Z,9.36
2019-03-30T04:42:30.405Z,9.35
2019-03-30T04:47:32.976Z,9.52
2019-03-30T04:52:35.696Z,9.28
2019-03-30T04:57:38.237Z,9.69
2019-03-30T05:02:42.178Z,9.61
2019-03-30T05:07:44.754Z,9.54
2019-03-30T05:12:47.478Z,9.57
2019-03-30T05:17:50.074Z,9.46
2019-03-30T05:22:52.677Z,9.49
2019-03-30T05:28:01.228Z,9.50
2019-03-30T05:33:05.921Z,9.47
2019-03-30T05:38:08.812Z,9.56
2019-03-30T05:43:11.649Z,9.54
2019-03-30T05:48:14.219Z,9.61
2019-03-30T05:53:16.785Z,9.81
2019-03-30T05:58:19.329Z,9.93
2019-03-30T06:03:22.078Z,10.18
2019-03-30T06:08:24.618Z,10.09
2019-03-30T06:13:27.781Z,10.39
2019-03-30T06:18:30.356Z,10.63
2019-03-30T06:23:33.046Z,10.96
2019-03-30T06:28:37.645Z,11.02
2019-03-30T06:33:40.393Z,11.04
2019-03-30T06:38:42.959Z,11.04
2019-03-30T06:43:45.647Z,11.24
2019-03-30T06:48:48.193Z,11.40
2019-03-30T06:53:53.554Z,11.90
2019-03-30T06:58:56.686Z,11.90
2019-03-30T07:03:59.442Z,12.45
2019-03-30T07:09:04.134Z,13.04
2019-03-30T07:14:10.035Z,12.96
2019-03-30T07:19:16.403Z,12.99
2019-03-30T07:24:19.246Z,13.31
2019-03-30T07:29:24.824Z,13.31
2019-03-30T07:34:27.549Z,13.65
2019-03-30T07:39:30.074Z,13.65
2019-03-30T07:44:32.628Z,13.56
2019-03-30T07:49:35.246Z,13.47
2019-03-30T07:54:37.860Z,13.33
2019-03-30T07:59:40.934Z,13.87
2019-03-30T08:04:43.844Z,13.87
2019-03-30T08:09:46.488Z,13.51
2019-03-30T08:14:49.052Z,13.45
2019-03-30T08:19:53.874Z,14.09
2019-03-30T08:24:56.443Z,14.46
2019-03-30T08:29:59.118Z,14.04
2019-03-30T08:35:01.785Z,13.82
2019-03-30T08:40:04.829Z,14.20
2019-03-30T08:45:11.046Z,14.52
2019-03-30T08:50:13.781Z,14.48
2019-03-30T08:55:16.451Z,14.48
2019-03-30T09:00:37.131Z,14.75
2019-03-30T09:05:42.465Z,14.75
2019-03-30T09:10:45.535Z,14.88
2019-03-30T09:15:48.203Z,14.97
2019-03-30T09:20:50.828Z,15.65
2019-03-30T09:25:53.408Z,16.33
2019-03-30T09:30:56.094Z,16.71
2019-03-30T09:36:00.467Z,17.02
2019-03-30T09:41:03.107Z,16.89
2019-03-30T09:46:05.663Z,16.67
2019-03-30T09:51:08.307Z,16.87
2019-03-30T09:56:10.854Z,16.30
2019-03-30T10:01:13.560Z,16.32
2019-03-30T10:06:16.150Z,16.29
2019-03-30T10:11:18.980Z,16.25
2019-03-30T10:16:21.743Z,16.15
2019-03-30T10:21:24.468Z,16.18
2019-03-30T10:26:27.027Z,16.12
2019-03-30T10:31:31.716Z,16.27
2019-03-30T10:36:34.366Z,16.47
2019-03-30T10:41:38.244Z,16.40
2019-03-30T10:46:40.836Z,16.62
2019-03-30T10:51:43.417Z,16.45
2019-03-30T10:56:45.997Z,16.66
2019-03-30T11:01:48.594Z,16.74
2019-03-30T11:06:51.235Z,16.79
2019-03-30T11:11:53.799Z,17.00
2019-03-30T11:16:59.189Z,16.80
2019-03-30T11:22:03.364Z,16.96
2019-03-30T11:27:06.205Z,16.95
2019-03-30T11:32:10.676Z,16.90
2019-03-30T11:37:13.264Z,17.17
2019-03-30T11:42:15.812Z,17.12
2019-03-30T11:47:18.373Z,17.21
2019-03-30T11:52:21.028Z,17.39
2019-03-30T11:57:23.609Z,17.19
2019-03-30T12:02:28.087Z,17.12
2019-03-30T12:07:34.719Z,17.22
2019-03-30T12:12:40.329Z,17.44
2019-03-30T12:17:42.901Z,17.59
2019-03-30T12:22:45.496Z,17.44
2019-03-30T12:27:48.056Z,17.66
2019-03-30T12:32:51.938Z,17.79
2019-03-30T12:37:54.496Z,18.22
2019-03-30T12:42:57.411Z,18.62
2019-03-30T12:48:02.312Z,18.98
2019-03-30T12:53:06.018Z,18.65
2019-03-30T12:58:08.702Z,18.29
2019-03-30T13:03:12.413Z,18.46
2019-03-30T13:08:14.960Z,18.88
2019-03-30T13:13:17.637Z,18.97
2019-03-30T13:18:20.208Z,19.45
2019-03-30T13:23:22.809Z,19.18
2019-03-30T13:28:26.201Z,19.00
2019-03-30T13:33:28.901Z,19.07
2019-03-30T13:38:31.480Z,19.15
2019-03-30T13:43:34.108Z,18.73
2019-03-30T13:48:36.693Z,18.35
2019-03-30T13:53:39.329Z,18.44
2019-03-30T13:58:41.907Z,18.17
2019-03-30T14:03:47.263Z,17.84
2019-03-30T14:08:54.629Z,18.11
2019-03-30T14:13:57.349Z,18.71
2019-03-30T14:18:59.910Z,19.10
2019-03-30T14:24:02.541Z,19.23
2019-03-30T14:29:05.114Z,19.14
2019-03-30T14:34:07.750Z,19.47
2019-03-30T14:39:10.296Z,19.25
2019-03-30T14:44:15.125Z,19.09
2019-03-30T14:49:17.893Z,18.92
2019-03-30T14:56:14.181Z,19.02
2019-03-30T15:01:19.402Z,18.96
2019-03-30T15:06:22.188Z,18.75
2019-03-30T15:11:25.212Z,18.86
2019-03-30T15:16:27.878Z,18.83
2019-03-30T15:21:31.609Z,18.82
2019-03-30T15:26:34.580Z,18.85
2019-03-30T15:31:37.481Z,18.86
2019-03-30T15:36:40.135Z,18.41
2019-03-30T15:41:43.091Z,17.95
2019-03-30T15:46:48.856Z,17.87
2019-03-30T15:51:57.476Z,17.97
2019-03-30T15:57:13.492Z,17.89
2019-03-30T16:02:08.392Z,18.12
2019-03-30T16:07:12.927Z,18.28
2019-03-30T16:12:17.400Z,18.77
2019-03-30T16:17:20.351Z,18.57
2019-03-30T16:22:23.016Z,18.23
2019-03-30T16:27:29.211Z,17.88
2019-03-30T16:32:30.446Z,17.78
2019-03-30T16:37:33.122Z,17.47
2019-03-30T16:42:36.407Z,17.27
2019-03-30T16:47:39.440Z,17.31
2019-03-30T16:52:46.861Z,17.08
2019-03-30T16:57:52.399Z,16.94
2019-03-30T17:02:54.972Z,16.66
2019-03-30T17:07:57.626Z,16.70
2019-03-30T17:13:00.266Z,16.47
2019-03-30T17:18:04.229Z,16.50
2019-03-30T17:23:07.014Z,16.51
2019-03-30T17:28:09.550Z,16.45
2019-03-30T17:33:12.195Z,16.16
2019-03-30T17:38:16.145Z,16.03
2019-03-30T17:43:18.960Z,15.99
2019-03-30T17:48:21.514Z,15.89
2019-03-30T17:53:24.065Z,15.67
2019-03-30T17:58:30.764Z,15.60
2019-03-30T18:03:33.561Z,15.44
2019-03-30T18:08:36.098Z,15.35
2019-03-30T18:13:38.814Z,15.39
2019-03-30T18:18:41.361Z,15.28
2019-03-30T18:23:47.563Z,15.13
2019-03-30T18:28:50.325Z,14.88
2019-03-30T18:33:55.850Z,15.00
2019-03-30T18:39:09.330Z,14.97
2019-03-30T18:44:03.539Z,14.77
2019-03-30T18:49:06.133Z,14.75
2019-03-30T18:54:08.669Z,14.61
2019-03-30T18:59:11.207Z,14.55
2019-03-30T19:04:13.951Z,14.37
2019-03-30T19:09:17.715Z,14.39
2019-03-30T19:14:20.441Z,14.03
2019-03-30T19:19:23.073Z,13.95
2019-03-30T19:24:26.074Z,13.88
2019-03-30T19:29:31.615Z,13.81
2019-03-30T19:34:34.480Z,13.73
2019-03-30T19:39:37.063Z,13.53
2019-03-30T19:44:40.023Z,13.47
2019-03-30T19:49:42.576Z,13.38
2019-03-30T19:54:48.590Z,13.26
2019-03-30T19:59:51.259Z,13.04
2019-03-30T20:04:53.868Z,12.93
2019-03-30T20:09:56.701Z,12.84
2019-03-30T20:14:59.253Z,12.90
2019-03-30T20:20:01.869Z,12.99
2019-03-30T20:25:05.433Z,12.71
2019-03-30T20:30:09.111Z,12.73
2019-03-30T20:35:11.906Z,12.41
2019-03-30T20:40:14.614Z,12.55
2019-03-30T20:45:17.204Z,12.45
2019-03-30T20:50:20.960Z,12.31
2019-03-30T20:55:23.630Z,12.48
2019-03-30T21:00:26.546Z,12.25
2019-03-30T21:05:29.121Z,12.25
2019-03-30T21:10:33.513Z,12.27
2019-03-30T21:15:36.087Z,12.17
2019-03-30T21:20:41.754Z,12.16
2019-03-30T21:25:44.524Z,12.16
2019-03-30T21:30:47.320Z,11.95
2019-03-30T21:35:52.221Z,11.92
2019-03-30T21:40:56.913Z,11.77
2019-03-30T21:46:01.412Z,11.69
2019-03-30T21:51:03.976Z,11.43
2019-03-30T21:56:07.304Z,11.35
2019-03-30T22:01:09.951Z,11.35
2019-03-30T22:06:15.052Z,11.35
2019-03-30T22:11:17.960Z,11.43
2019-03-30T22:16:20.513Z,11.43
2019-03-30T22:21:23.443Z,11.39
2019-03-30T22:26:27.195Z,11.21
2019-03-30T22:31:29.834Z,11.27
2019-03-30T22:36:32.379Z,10.88
2019-03-30T22:41:35.027Z,11.08
2019-03-30T22:46:37.628Z,10.91
2019-03-30T22:51:40.210Z,11.08
2019-03-30T22:56:53.812Z,11.08
2019-03-30T23:01:58.213Z,10.90
2019-03-30T23:07:03.244Z,10.98
2019-03-30T23:12:05.956Z,10.58
2019-03-30T23:17:08.539Z,10.37
2019-03-30T23:22:15.384Z,10.37
2019-03-30T23:27:17.929Z,10.38
2019-03-30T23:32:22.658Z,10.12
2019-03-30T23:37:25.196Z,10.31
2019-03-30T23:42:27.961Z,9.83
2019-03-30T23:47:30.500Z,9.94
2019-03-30T23:52:33.395Z,9.63
2019-03-30T23:57:38.175Z,9.87
